virtualACA

Welcome To Calgary International Airport CYYC

Hub Roster

Pilot Domicile Rank
Ethan Title - ACA1641CanadaChief Pilot
Graham Dawson - ACA2317CanadaChief Pilot
Roger Godden - ACA2339CanadaChief Pilot
Nemeth Istvan - ACA3257HungaryNew Hire
Burt Dykeman - ACA3267CanadaSecond Officer
Ross Mayl - ACA3271United KingdomNew Hire
Rashaido Brown - ACA3288JamaicaNew Hire

Current Vatsim Weather


CYYC 242000Z VRB04KT 40SM FEW055TCU FEW095 SCT130 SCT200 BKN250 22/07 A2974 RMK TCU2AC1ACC1CI1CI2 AC TR DIST SH N - NE TCU / ACC S SLP065 DENSITY ALT 5500FT
Calgary International Airport